createdAt,value
2022-11-28T00:01:30.139Z,38.68
2022-11-28T00:03:58.312Z,38.83
2022-11-28T00:06:26.910Z,38.82
2022-11-28T00:08:55.266Z,38.74
2022-11-28T00:11:23.445Z,38.39
2022-11-28T00:13:53.264Z,38.78
2022-11-28T00:16:22.425Z,38.64
2022-11-28T00:18:50.598Z,38.92
2022-11-28T00:21:18.809Z,38.80
2022-11-28T00:23:47.345Z,38.57
2022-11-28T00:26:16.876Z,38.99
2022-11-28T00:28:45.389Z,38.58
2022-11-28T00:31:15.607Z,38.79
2022-11-28T00:33:43.833Z,38.73
2022-11-28T00:36:12.041Z,38.19
2022-11-28T00:38:40.335Z,38.79
2022-11-28T00:41:09.765Z,38.43
2022-11-28T00:43:37.987Z,38.43
2022-11-28T00:46:06.424Z,38.86
2022-11-28T00:48:36.195Z,38.28
2022-11-28T00:51:07.772Z,38.86
2022-11-28T00:53:35.992Z,38.14
2022-11-28T00:56:05.735Z,38.36
2022-11-28T00:58:34.027Z,38.29
2022-11-28T01:01:02.136Z,38.84
2022-11-28T01:03:30.348Z,38.25
2022-11-28T01:05:59.816Z,38.94
2022-11-28T01:08:28.664Z,38.51
2022-11-28T01:10:56.791Z,38.94
2022-11-28T01:13:24.988Z,38.80
2022-11-28T01:15:53.086Z,38.91
2022-11-28T01:18:21.294Z,38.33
2022-11-28T01:20:49.386Z,38.60
2022-11-28T01:23:19.674Z,38.61
2022-11-28T01:25:47.889Z,38.94
2022-11-28T01:28:16.034Z,38.21
2022-11-28T01:30:44.220Z,39.04
2022-11-28T01:33:12.344Z,38.57
2022-11-28T01:35:40.524Z,38.75
2022-11-28T01:38:08.592Z,38.82
2022-11-28T01:40:38.215Z,38.87
2022-11-28T01:43:07.417Z,38.20
2022-11-28T01:45:35.541Z,38.71
2022-11-28T01:48:04.384Z,38.62
2022-11-28T01:50:32.803Z,38.89
2022-11-28T01:53:02.857Z,38.36
2022-11-28T01:55:32.923Z,38.95
2022-11-28T01:58:02.482Z,38.83
2022-11-28T02:00:30.708Z,38.57
2022-11-28T02:03:01.041Z,38.74
2022-11-28T02:05:29.212Z,38.89
2022-11-28T02:07:57.411Z,38.27
2022-11-28T02:10:28.627Z,38.51
2022-11-28T02:13:18.565Z,38.56
2022-11-28T02:16:00.692Z,38.79
2022-11-28T02:18:37.620Z,38.81
2022-11-28T02:21:25.138Z,38.96
2022-11-28T02:24:34.485Z,38.22
2022-11-28T02:27:44.198Z,38.26
2022-11-28T02:30:32.122Z,38.59
2022-11-28T02:33:12.983Z,38.62
2022-11-28T02:35:46.260Z,38.84
2022-11-28T02:38:18.001Z,38.24
2022-11-28T02:40:50.358Z,38.39
2022-11-28T02:43:21.776Z,38.65
2022-11-28T02:45:55.096Z,38.85
2022-11-28T02:48:28.443Z,38.30
2022-11-28T02:50:58.990Z,38.49
2022-11-28T02:53:27.556Z,38.60
2022-11-28T02:55:55.947Z,38.48
2022-11-28T02:58:24.252Z,38.83
2022-11-28T03:00:52.641Z,38.96
2022-11-28T03:03:59.010Z,38.21
2022-11-28T03:06:34.508Z,38.26
2022-11-28T03:09:19.058Z,38.39
2022-11-28T03:11:51.001Z,38.39
2022-11-28T03:14:25.852Z,38.84
2022-11-28T03:16:58.064Z,38.94
2022-11-28T03:19:28.406Z,38.55
2022-11-28T03:22:00.618Z,38.25
2022-11-28T03:24:31.608Z,38.29
2022-11-28T03:27:02.317Z,38.11
2022-11-28T03:29:33.004Z,38.36
2022-11-28T03:32:03.086Z,38.51
2022-11-28T03:34:33.488Z,38.38
2022-11-28T03:37:04.244Z,38.52
2022-11-28T03:39:35.318Z,38.92
2022-11-28T03:42:05.116Z,38.37
2022-11-28T03:44:39.084Z,38.33
2022-11-28T03:47:07.492Z,38.50
2022-11-28T03:49:37.985Z,38.22
2022-11-28T03:52:08.550Z,38.96
2022-11-28T03:54:38.340Z,38.53
2022-11-28T03:57:09.280Z,38.52
2022-11-28T03:59:38.572Z,38.84
2022-11-28T04:02:08.312Z,38.36
2022-11-28T04:04:38.309Z,38.60
2022-11-28T04:07:12.207Z,38.42
2022-11-28T04:09:42.988Z,38.64
2022-11-28T04:12:15.073Z,38.35
2022-11-28T04:14:45.504Z,38.40
2022-11-28T04:17:15.980Z,38.68
2022-11-28T04:19:45.211Z,38.74
2022-11-28T04:22:16.927Z,38.67
2022-11-28T04:24:47.156Z,38.31
2022-11-28T04:27:17.624Z,38.59
2022-11-28T04:29:48.008Z,38.26
2022-11-28T04:32:16.329Z,38.43
2022-11-28T04:34:45.693Z,38.68
2022-11-28T04:37:15.604Z,38.45
2022-11-28T04:39:44.992Z,38.41
2022-11-28T04:42:14.647Z,38.63
2022-11-28T04:44:45.452Z,38.72
2022-11-28T04:47:13.756Z,38.77
2022-11-28T04:49:42.015Z,38.13
2022-11-28T04:52:11.107Z,38.76
2022-11-28T04:54:45.226Z,38.78
2022-11-28T04:57:15.425Z,38.95
2022-11-28T04:59:43.770Z,38.57
2022-11-28T05:02:12.064Z,38.38
2022-11-28T05:04:40.538Z,38.61
2022-11-28T05:07:10.309Z,38.81
2022-11-28T05:09:38.625Z,38.73
2022-11-28T05:12:08.779Z,38.25
2022-11-28T05:14:37.153Z,38.57
2022-11-28T05:17:05.358Z,38.49
2022-11-28T05:19:33.670Z,38.22
2022-11-28T05:22:01.876Z,38.83
2022-11-28T05:24:42.338Z,38.49
2022-11-28T05:27:12.680Z,38.45
2022-11-28T05:29:46.789Z,38.49
2022-11-28T05:32:16.472Z,38.46
2022-11-28T05:34:44.799Z,38.26
2022-11-28T05:37:13.702Z,38.92
2022-11-28T05:39:42.188Z,38.75
2022-11-28T05:42:12.162Z,38.09
2022-11-28T05:44:40.505Z,38.76
2022-11-28T05:47:08.804Z,38.51
2022-11-28T05:49:36.995Z,38.51
2022-11-28T05:52:05.435Z,38.32
2022-11-28T05:54:33.640Z,38.13
2022-11-28T05:57:02.977Z,38.69
2022-11-28T05:59:32.630Z,38.14
2022-11-28T06:02:01.207Z,38.11
2022-11-28T06:04:29.585Z,38.60
2022-11-28T06:06:57.949Z,38.52
2022-11-28T06:09:26.817Z,38.61
2022-11-28T06:11:55.118Z,38.24
2022-11-28T06:14:23.318Z,38.68
2022-11-28T06:16:53.124Z,38.46
2022-11-28T06:19:21.340Z,38.75
2022-11-28T06:21:51.009Z,38.76
2022-11-28T06:24:19.206Z,38.69
2022-11-28T06:26:47.588Z,38.14
2022-11-28T06:29:16.081Z,38.78
2022-11-28T06:31:44.545Z,38.10
2022-11-28T06:34:14.326Z,38.42
2022-11-28T06:36:42.706Z,38.68
2022-11-28T06:39:12.349Z,38.85
2022-11-28T06:41:40.644Z,38.56
2022-11-28T06:44:08.990Z,38.10
2022-11-28T06:46:38.183Z,38.52
2022-11-28T06:49:06.480Z,38.13
2022-11-28T06:51:36.193Z,38.55
2022-11-28T06:54:04.424Z,38.63
2022-11-28T06:56:32.713Z,37.98
2022-11-28T06:59:01.366Z,37.90
2022-11-28T07:01:30.805Z,38.40
2022-11-28T07:03:59.309Z,37.67
2022-11-28T07:06:27.720Z,37.67
2022-11-28T07:08:58.623Z,38.13
2022-11-28T07:11:27.721Z,37.69
2022-11-28T07:13:56.139Z,38.38
2022-11-28T07:16:25.355Z,38.31
2022-11-28T07:18:53.932Z,38.29
2022-11-28T07:21:22.257Z,37.57
2022-11-28T07:23:50.440Z,38.07
2022-11-28T07:26:21.506Z,37.50
2022-11-28T07:28:49.865Z,37.59
2022-11-28T07:31:19.166Z,37.97
2022-11-28T07:33:48.480Z,38.04
2022-11-28T07:36:17.507Z,38.04
2022-11-28T07:38:47.812Z,37.71
2022-11-28T07:41:16.137Z,37.48
2022-11-28T07:43:46.520Z,37.41
2022-11-28T07:46:16.366Z,37.40
2022-11-28T07:48:44.898Z,37.65
2022-11-28T07:51:13.885Z,37.27
2022-11-28T07:53:42.231Z,37.68
2022-11-28T07:56:14.136Z,37.94
2022-11-28T07:58:42.707Z,38.15
2022-11-28T08:01:12.861Z,37.99
2022-11-28T08:03:41.186Z,38.05
2022-11-28T08:06:09.837Z,37.87
2022-11-28T08:08:38.444Z,37.48
2022-11-28T08:11:08.602Z,37.75
2022-11-28T08:13:37.078Z,38.06
2022-11-28T08:16:06.778Z,37.57
2022-11-28T08:18:36.727Z,37.96
2022-11-28T08:21:06.082Z,38.06
2022-11-28T08:23:34.634Z,37.67
2022-11-28T08:26:03.061Z,37.71
2022-11-28T08:28:31.794Z,37.44
2022-11-28T08:31:02.139Z,37.70
2022-11-28T08:33:30.481Z,37.73
2022-11-28T08:36:00.279Z,37.90
2022-11-28T08:38:28.597Z,37.91
2022-11-28T08:41:02.265Z,38.04
2022-11-28T08:43:30.665Z,38.09
2022-11-28T08:45:59.520Z,38.01
2022-11-28T08:48:27.852Z,38.24
2022-11-28T08:50:56.478Z,37.86
2022-11-28T08:53:26.200Z,38.21
2022-11-28T08:55:54.269Z,38.22
2022-11-28T08:58:22.465Z,38.30
2022-11-28T09:00:50.626Z,38.40
2022-11-28T09:03:19.504Z,37.96
2022-11-28T09:05:47.941Z,37.64
2022-11-28T09:08:16.194Z,38.08
2022-11-28T09:10:45.774Z,38.06
2022-11-28T09:13:14.269Z,38.08
2022-11-28T09:15:42.533Z,38.23
2022-11-28T09:18:10.768Z,37.65
2022-11-28T09:20:39.539Z,37.86
2022-11-28T09:23:07.747Z,38.19
2022-11-28T09:25:36.254Z,37.87
2022-11-28T09:28:06.098Z,37.90
2022-11-28T09:30:34.523Z,37.70
2022-11-28T09:33:02.870Z,37.57
2022-11-28T09:35:31.164Z,38.21
2022-11-28T09:37:59.433Z,38.15
2022-11-28T09:40:31.443Z,37.53
2022-11-28T09:43:00.487Z,37.28
2022-11-28T09:45:30.162Z,37.32
2022-11-28T09:48:00.857Z,37.85
2022-11-28T09:50:32.028Z,37.32
2022-11-28T09:53:02.021Z,36.95
2022-11-28T09:55:33.625Z,37.18
2022-11-28T09:58:02.729Z,37.71
2022-11-28T10:00:36.372Z,37.94
2022-11-28T10:03:32.243Z,37.66
2022-11-28T10:06:05.020Z,37.22
2022-11-28T10:08:37.472Z,37.38
2022-11-28T10:11:06.765Z,37.03
2022-11-28T10:14:06.558Z,36.92
2022-11-28T10:16:36.741Z,36.86
2022-11-28T10:19:05.991Z,37.12
2022-11-28T10:21:36.646Z,36.84
2022-11-28T10:24:06.028Z,37.19
2022-11-28T10:26:36.886Z,36.82
2022-11-28T10:29:08.761Z,37.19
2022-11-28T10:31:40.363Z,36.74
2022-11-28T10:34:10.290Z,37.09
2022-11-28T10:36:46.423Z,37.76
2022-11-28T10:39:15.077Z,37.27
2022-11-28T10:41:46.748Z,37.74
2022-11-28T10:44:21.334Z,37.26
2022-11-28T10:46:56.404Z,38.17
2022-11-28T10:49:30.861Z,37.85
2022-11-28T10:52:03.656Z,38.30
2022-11-28T10:54:44.279Z,37.77
2022-11-28T10:57:15.119Z,37.88
2022-11-28T10:59:50.645Z,37.93
2022-11-28T11:02:23.581Z,37.84
2022-11-28T11:04:52.125Z,38.65
2022-11-28T11:07:29.057Z,38.00
2022-11-28T11:09:57.744Z,38.10
2022-11-28T11:12:27.253Z,38.42
2022-11-28T11:14:55.548Z,38.47
2022-11-28T11:17:34.349Z,38.61
2022-11-28T11:20:04.502Z,38.56
2022-11-28T11:22:32.925Z,38.77
2022-11-28T11:25:11.682Z,38.13
2022-11-28T11:27:40.042Z,38.61
2022-11-28T11:30:19.257Z,37.73
2022-11-28T11:32:51.586Z,37.48
2022-11-28T11:35:21.630Z,38.32
2022-11-28T11:37:50.526Z,37.92
2022-11-28T11:40:27.663Z,37.77
2022-11-28T11:42:56.940Z,37.77
2022-11-28T11:45:27.605Z,38.00
2022-11-28T11:47:57.314Z,37.43
2022-11-28T11:50:26.978Z,37.53
2022-11-28T11:53:05.643Z,37.66
2022-11-28T11:55:37.094Z,37.85
2022-11-28T11:58:05.996Z,38.11
2022-11-28T12:00:37.748Z,37.42
2022-11-28T12:03:13.009Z,37.79
2022-11-28T12:06:12.771Z,37.66
2022-11-28T12:08:40.135Z,37.97
2022-11-28T12:11:13.754Z,37.83
2022-11-28T12:13:41.984Z,37.56
2022-11-28T12:16:16.401Z,37.71
2022-11-28T12:18:51.847Z,37.70
2022-11-28T12:21:22.285Z,37.96
2022-11-28T12:24:09.054Z,37.84
2022-11-28T12:26:42.047Z,37.88
2022-11-28T12:29:25.364Z,37.78
2022-11-28T12:31:57.499Z,38.00
2022-11-28T12:34:30.735Z,37.83
2022-11-28T12:37:02.349Z,37.31
2022-11-28T12:39:35.533Z,37.37
2022-11-28T12:42:14.608Z,37.72
2022-11-28T12:44:55.296Z,38.05
2022-11-28T12:47:28.937Z,37.94
2022-11-28T12:50:00.442Z,37.92
2022-11-28T12:52:33.844Z,37.26
2022-11-28T12:55:18.626Z,38.00
2022-11-28T12:57:49.340Z,37.50
2022-11-28T13:00:19.041Z,37.81
2022-11-28T13:02:54.075Z,37.26
2022-11-28T13:05:32.209Z,37.79
2022-11-28T13:08:09.690Z,37.80
2022-11-28T13:10:40.957Z,37.48
2022-11-28T13:13:09.935Z,37.69
2022-11-28T13:15:45.666Z,37.67
2022-11-28T13:18:21.144Z,37.61
2022-11-28T13:20:53.084Z,37.82
2022-11-28T13:23:23.556Z,38.00
2022-11-28T13:25:53.653Z,37.53
2022-11-28T13:28:24.955Z,37.29
2022-11-28T13:30:54.716Z,37.40
2022-11-28T13:33:31.724Z,37.49
2022-11-28T13:36:01.590Z,37.77
2022-11-28T13:38:35.719Z,37.63
2022-11-28T13:41:05.806Z,38.13
2022-11-28T13:43:39.598Z,37.54
2022-11-28T13:46:08.481Z,37.90
2022-11-28T13:51:43.252Z,38.33
2022-11-28T13:54:43.429Z,37.79
2022-11-28T13:57:27.949Z,38.08
2022-11-28T13:59:59.041Z,38.02
2022-11-28T14:02:34.730Z,37.98
2022-11-28T14:05:03.041Z,38.06
2022-11-28T14:07:33.832Z,37.66
2022-11-28T14:10:14.219Z,38.01
2022-11-28T14:12:45.983Z,37.38
2022-11-28T14:15:24.464Z,37.85
2022-11-28T14:18:00.954Z,37.93
2022-11-28T14:20:32.028Z,37.95
2022-11-28T14:23:10.612Z,37.78
2022-11-28T14:25:42.228Z,37.25
2022-11-28T14:28:18.321Z,36.93
2022-11-28T14:30:47.502Z,36.92
2022-11-28T14:33:18.313Z,36.95
2022-11-28T14:36:05.392Z,36.30
2022-11-28T14:38:45.045Z,36.40
2022-11-28T14:41:15.369Z,36.52
2022-11-28T14:43:46.250Z,36.28
2022-11-28T14:46:28.866Z,36.14
2022-11-28T14:49:22.238Z,36.12
2022-11-28T14:52:38.864Z,36.78
2022-11-28T14:55:18.917Z,36.24
2022-11-28T14:57:56.771Z,36.06
2022-11-28T15:00:25.776Z,36.48
2022-11-28T15:03:22.733Z,36.50
2022-11-28T15:05:51.664Z,36.47
2022-11-28T15:08:48.286Z,36.70
2022-11-28T15:11:26.182Z,36.75
2022-11-28T15:14:04.407Z,36.30
2022-11-28T15:16:34.930Z,36.68
2022-11-28T15:19:07.388Z,36.64
2022-11-28T15:21:43.793Z,36.06
2022-11-28T15:24:29.804Z,36.45
2022-11-28T15:27:00.357Z,35.96
2022-11-28T15:29:29.476Z,36.33
2022-11-28T15:31:59.770Z,36.13
2022-11-28T15:34:29.103Z,35.88
2022-11-28T15:36:58.400Z,35.67
2022-11-28T15:39:29.226Z,35.87
2022-11-28T15:41:59.508Z,35.85
2022-11-28T15:44:28.400Z,35.77
2022-11-28T15:46:56.692Z,36.18
2022-11-28T15:49:30.488Z,36.10
2022-11-28T15:52:00.882Z,35.66
2022-11-28T15:54:35.579Z,35.95
2022-11-28T15:57:05.778Z,35.94
2022-11-28T15:59:34.633Z,35.67
2022-11-28T16:02:05.482Z,35.98
2022-11-28T16:04:33.932Z,35.79
2022-11-28T16:07:02.279Z,36.37
2022-11-28T16:09:32.810Z,35.80
2022-11-28T16:12:01.073Z,36.14
2022-11-28T16:14:31.397Z,36.17
2022-11-28T16:16:59.896Z,36.44
2022-11-28T16:19:29.839Z,36.30
2022-11-28T16:21:58.797Z,35.95
2022-11-28T16:24:31.219Z,36.34
2022-11-28T16:27:04.411Z,36.46
2022-11-28T16:29:34.937Z,36.06
2022-11-28T16:32:09.856Z,35.77
2022-11-28T16:34:48.284Z,35.95
2022-11-28T16:37:22.113Z,36.13
2022-11-28T16:40:04.610Z,35.76
2022-11-28T16:42:33.110Z,36.30
2022-11-28T16:45:10.292Z,35.98
2022-11-28T16:47:38.424Z,36.57
2022-11-28T16:50:18.456Z,36.43
2022-11-28T16:52:51.089Z,35.87
2022-11-28T16:55:38.682Z,36.13
2022-11-28T16:58:12.080Z,36.11
2022-11-28T17:00:42.348Z,36.47
2022-11-28T17:03:34.957Z,35.91
2022-11-28T17:06:03.150Z,35.78
2022-11-28T17:08:31.277Z,35.88
2022-11-28T17:10:59.466Z,36.12
2022-11-28T17:13:30.976Z,35.84
2022-11-28T17:16:00.572Z,35.94
2022-11-28T17:18:28.678Z,35.56
2022-11-28T17:20:56.851Z,35.68
2022-11-28T17:23:25.876Z,35.37
2022-11-28T17:25:54.084Z,35.91
2022-11-28T17:28:26.429Z,35.37
2022-11-28T17:30:57.069Z,35.81
2022-11-28T17:33:26.577Z,35.94
2022-11-28T17:35:54.941Z,35.85
2022-11-28T17:38:23.012Z,36.04
2022-11-28T17:40:51.194Z,35.48
2022-11-28T17:43:20.020Z,35.54
2022-11-28T17:45:48.918Z,35.52
2022-11-28T17:48:18.006Z,35.53
2022-11-28T17:50:48.462Z,35.63
2022-11-28T17:53:17.387Z,36.19
2022-11-28T17:55:46.624Z,35.65
2022-11-28T17:58:17.390Z,35.58
2022-11-28T18:00:45.879Z,35.95
2022-11-28T18:03:14.981Z,35.40
2022-11-28T18:05:45.647Z,35.73
2022-11-28T18:08:21.623Z,35.29
2022-11-28T18:10:50.339Z,35.67
2022-11-28T18:13:19.293Z,35.67
2022-11-28T18:15:48.622Z,35.38
2022-11-28T18:18:16.828Z,35.50
2022-11-28T18:20:45.154Z,35.89
2022-11-28T18:23:13.941Z,35.69
2022-11-28T18:25:44.368Z,35.57
2022-11-28T18:28:18.481Z,35.79
2022-11-28T18:30:48.226Z,35.38
2022-11-28T18:33:16.974Z,35.87
2022-11-28T18:35:45.589Z,35.91
2022-11-28T18:38:13.883Z,35.95
2022-11-28T18:40:43.857Z,35.47
2022-11-28T18:43:12.255Z,35.84
2022-11-28T18:45:40.567Z,35.46
2022-11-28T18:48:09.152Z,35.51
2022-11-28T18:50:37.352Z,35.68
2022-11-28T18:53:05.716Z,36.00
2022-11-28T18:55:33.881Z,35.52
2022-11-28T18:58:03.988Z,35.85
2022-11-28T19:00:32.757Z,36.30
2022-11-28T19:03:01.170Z,36.12
2022-11-28T19:05:31.134Z,36.21
2022-11-28T19:08:02.519Z,35.86
2022-11-28T19:10:31.696Z,36.11
2022-11-28T19:12:59.984Z,36.03
2022-11-28T19:15:30.226Z,35.58
2022-11-28T19:17:58.484Z,36.33
2022-11-28T19:20:26.730Z,35.64
2022-11-28T19:22:55.145Z,36.27
2022-11-28T19:25:23.826Z,35.95
2022-11-28T19:27:52.111Z,35.58
2022-11-28T19:30:20.481Z,35.63
2022-11-28T19:32:50.529Z,35.41
2022-11-28T19:35:19.344Z,35.97
2022-11-28T19:37:47.615Z,36.11
2022-11-28T19:40:16.197Z,36.09
2022-11-28T19:42:44.486Z,36.11
2022-11-28T19:45:13.224Z,35.90
2022-11-28T19:47:42.463Z,36.13
2022-11-28T19:50:14.021Z,35.71
2022-11-28T19:52:42.428Z,35.89
2022-11-28T19:55:11.024Z,35.92
2022-11-28T19:57:40.132Z,36.10
2022-11-28T20:00:09.974Z,35.98
2022-11-28T20:02:42.406Z,36.06
2022-11-28T20:05:12.498Z,36.31
2022-11-28T20:07:40.935Z,36.15
2022-11-28T20:10:10.616Z,35.98
2022-11-28T20:12:39.281Z,36.61
2022-11-28T20:15:09.807Z,36.87
2022-11-28T20:17:40.900Z,37.01
2022-11-28T20:20:10.553Z,37.48
2022-11-28T20:22:40.601Z,37.63
2022-11-28T20:25:09.791Z,38.06
2022-11-28T20:27:38.114Z,38.20
2022-11-28T20:30:07.937Z,38.39
2022-11-28T20:32:36.323Z,38.67
2022-11-28T20:35:05.045Z,38.67
2022-11-28T20:37:33.954Z,38.52
2022-11-28T20:40:04.227Z,38.33
2022-11-28T20:42:38.223Z,38.74
2022-11-28T20:45:09.483Z,38.95
2022-11-28T20:47:37.853Z,38.34
2022-11-28T20:50:08.442Z,39.06
2022-11-28T20:52:36.799Z,39.14
2022-11-28T20:55:07.404Z,39.05
2022-11-28T20:57:35.837Z,39.04
2022-11-28T21:00:04.230Z,39.18
2022-11-28T21:02:32.630Z,39.17
2022-11-28T21:05:01.082Z,39.68
2022-11-28T21:07:31.153Z,39.02
2022-11-28T21:10:00.616Z,39.04
2022-11-28T21:12:30.340Z,39.18
2022-11-28T21:14:58.741Z,39.47
2022-11-28T21:17:27.003Z,39.22
2022-11-28T21:19:55.349Z,39.45
2022-11-28T21:22:23.732Z,39.42
2022-11-28T21:24:52.028Z,39.01
2022-11-28T21:27:20.338Z,38.89
2022-11-28T21:29:50.574Z,39.02
2022-11-28T21:32:18.815Z,39.29
2022-11-28T21:34:46.975Z,39.69
2022-11-28T21:37:15.205Z,39.48
2022-11-28T21:39:43.604Z,39.24
2022-11-28T21:42:18.915Z,39.14
2022-11-28T21:44:50.203Z,38.99
2022-11-28T21:47:18.676Z,39.01
2022-11-28T21:49:47.372Z,39.20
2022-11-28T21:52:16.728Z,39.70
2022-11-28T21:54:45.885Z,39.76
2022-11-28T21:57:14.545Z,39.37
2022-11-28T21:59:43.053Z,39.11
2022-11-28T22:02:14.301Z,39.37
2022-11-28T22:04:45.919Z,39.15
2022-11-28T22:07:14.468Z,39.61
2022-11-28T22:09:42.944Z,39.37
2022-11-28T22:12:11.356Z,39.11
2022-11-28T22:14:39.580Z,39.32
2022-11-28T22:17:07.798Z,39.74
2022-11-28T22:19:37.785Z,39.76
2022-11-28T22:22:06.325Z,39.22
2022-11-28T22:24:35.866Z,39.43
2022-11-28T22:27:06.044Z,39.58
2022-11-28T22:29:34.909Z,39.48
2022-11-28T22:32:04.193Z,39.46
2022-11-28T22:34:38.362Z,39.35
2022-11-28T22:37:09.519Z,39.16
2022-11-28T22:39:39.721Z,39.38
2022-11-28T22:42:08.261Z,39.70
2022-11-28T22:44:36.488Z,39.83
2022-11-28T22:47:04.945Z,39.48
2022-11-28T22:49:34.580Z,39.50
2022-11-28T22:52:03.307Z,39.45
2022-11-28T22:54:33.172Z,39.52
2022-11-28T22:57:01.681Z,39.84
2022-11-28T22:59:33.746Z,39.80
2022-11-28T23:02:02.945Z,39.88
2022-11-28T23:04:31.471Z,39.57
2022-11-28T23:06:59.955Z,39.44
2022-11-28T23:09:28.468Z,39.50
2022-11-28T23:11:58.729Z,39.91
2022-11-28T23:14:27.382Z,40.04
2022-11-28T23:16:55.741Z,39.55
2022-11-28T23:19:24.505Z,39.81
2022-11-28T23:21:52.772Z,39.41
2022-11-28T23:24:23.292Z,38.78
2022-11-28T23:26:52.452Z,38.83
2022-11-28T23:29:22.341Z,38.69
2022-11-28T23:31:51.193Z,38.43
2022-11-28T23:34:19.448Z,39.01
2022-11-28T23:36:48.988Z,38.62
2022-11-28T23:39:18.141Z,38.66
2022-11-28T23:41:46.528Z,38.69
2022-11-28T23:44:15.374Z,38.42
2022-11-28T23:46:45.069Z,38.63
2022-11-28T23:49:13.476Z,38.44
2022-11-28T23:51:41.750Z,38.92
2022-11-28T23:54:10.305Z,38.36
2022-11-28T23:56:38.987Z,38.86
2022-11-28T23:59:08.011Z,38.60
